createdAt,value
2023-05-18T00:02:43.526Z,101224.16
2023-05-18T00:05:45.126Z,101217.63
2023-05-18T00:08:46.550Z,101214.06
2023-05-18T00:11:47.959Z,101211.41
2023-05-18T00:14:49.379Z,101208.88
2023-05-18T00:17:53.226Z,101203.63
2023-05-18T00:20:58.648Z,101201.72
2023-05-18T00:24:00.242Z,101197.63
2023-05-18T00:27:01.655Z,101199.41
2023-05-18T00:30:05.621Z,101203.66
2023-05-18T00:33:07.163Z,101211.81
2023-05-18T00:36:10.927Z,101200.44
2023-05-18T00:39:12.392Z,101201.31
2023-05-18T00:42:14.455Z,101211.00
2023-05-18T00:45:16.142Z,101201.31
2023-05-18T00:48:17.602Z,101204.03
2023-05-18T00:51:21.332Z,101199.69
2023-05-18T00:54:22.950Z,101197.94
2023-05-18T00:57:24.383Z,101191.94
2023-05-18T01:00:26.135Z,101206.94
2023-05-18T01:03:30.180Z,101194.75
2023-05-18T01:06:32.802Z,101201.78
2023-05-18T01:09:34.992Z,101205.25
2023-05-18T01:12:45.859Z,101200.81
2023-05-18T01:15:54.329Z,101204.25
2023-05-18T01:19:14.032Z,101207.78
2023-05-18T01:22:23.136Z,101207.00
2023-05-18T01:25:41.874Z,101208.72
2023-05-18T01:28:46.448Z,101212.34
2023-05-18T01:31:48.034Z,101212.34
2023-05-18T01:34:50.389Z,101211.56
2023-05-18T01:37:51.830Z,101210.94
2023-05-18T01:41:15.257Z,101209.50
2023-05-18T01:44:52.264Z,101207.91
2023-05-18T01:47:57.031Z,101203.41
2023-05-18T01:50:59.524Z,101201.25
2023-05-18T01:54:05.147Z,101209.19
2023-05-18T01:57:08.234Z,101205.66
2023-05-18T02:00:10.674Z,101196.03
2023-05-18T02:03:17.864Z,101198.41
2023-05-18T02:06:19.379Z,101203.56
2023-05-18T02:09:21.688Z,101193.81
2023-05-18T02:12:23.557Z,101196.56
2023-05-18T02:15:25.084Z,101202.94
2023-05-18T02:18:29.283Z,101202.91
2023-05-18T02:21:30.731Z,101194.19
2023-05-18T02:24:32.935Z,101198.56
2023-05-18T02:27:35.949Z,101197.75
2023-05-18T02:30:37.454Z,101195.16
2023-05-18T02:33:40.048Z,101192.38
2023-05-18T02:36:42.540Z,101197.75
2023-05-18T02:39:44.368Z,101196.84
2023-05-18T02:42:45.819Z,101189.00
2023-05-18T02:45:47.341Z,101185.69
2023-05-18T02:48:49.801Z,101196.59
2023-05-18T02:51:51.225Z,101195.03
2023-05-18T02:54:54.658Z,101192.31
2023-05-18T02:58:04.202Z,101195.78
2023-05-18T03:01:30.213Z,101194.03
2023-05-18T03:04:31.974Z,101197.50
2023-05-18T03:07:33.772Z,101194.91
2023-05-18T03:10:37.081Z,101190.50
2023-05-18T03:13:38.999Z,101194.91
2023-05-18T03:16:40.653Z,101186.19
2023-05-18T03:19:47.198Z,101190.69
2023-05-18T03:22:48.750Z,101185.72
2023-05-18T03:25:53.652Z,101184.84
2023-05-18T03:28:56.672Z,101185.78
2023-05-18T03:31:58.493Z,101185.75
2023-05-18T03:35:01.110Z,101194.63
2023-05-18T03:38:03.357Z,101198.41
2023-05-18T03:41:05.283Z,101203.13
2023-05-18T03:44:07.006Z,101199.66
2023-05-18T03:47:09.253Z,101205.75
2023-05-18T03:50:11.488Z,101204.00
2023-05-18T03:53:13.273Z,101202.25
2023-05-18T03:56:14.699Z,101197.03
2023-05-18T03:59:16.159Z,101202.94
2023-05-18T04:02:17.627Z,101202.03
2023-05-18T04:05:19.331Z,101199.50
2023-05-18T04:08:25.306Z,101214.66
2023-05-18T04:11:27.171Z,101205.81
2023-05-18T04:14:28.730Z,101210.44
2023-05-18T04:17:30.218Z,101211.31
2023-05-18T04:20:31.736Z,101210.63
2023-05-18T04:23:38.847Z,101217.72
2023-05-18T04:26:42.302Z,101220.34
2023-05-18T04:29:44.122Z,101226.50
2023-05-18T04:32:45.771Z,101226.72
2023-05-18T04:35:47.534Z,101227.47
2023-05-18T04:38:50.708Z,101222.97
2023-05-18T04:41:58.207Z,101220.34
2023-05-18T04:45:05.762Z,101221.97
2023-05-18T04:48:08.230Z,101228.91
2023-05-18T04:51:10.116Z,101233.16
2023-05-18T04:54:12.982Z,101232.16
2023-05-18T04:57:14.458Z,101227.41
2023-05-18T05:00:16.863Z,101231.81
2023-05-18T05:03:18.808Z,101235.28
2023-05-18T05:06:20.554Z,101238.69
2023-05-18T05:09:21.995Z,101240.50
2023-05-18T05:12:23.415Z,101241.22
2023-05-18T05:15:25.946Z,101237.66
2023-05-18T05:18:28.797Z,101242.81
2023-05-18T05:21:31.437Z,101244.34
2023-05-18T05:24:33.069Z,101246.97
2023-05-18T05:27:34.833Z,101243.34
2023-05-18T05:30:37.007Z,101248.56
2023-05-18T05:33:38.472Z,101251.88
2023-05-18T05:36:39.890Z,101248.34
2023-05-18T05:39:41.731Z,101253.47
2023-05-18T05:42:44.261Z,101255.09
2023-05-18T05:45:46.838Z,101255.00
2023-05-18T05:48:48.452Z,101261.75
2023-05-18T05:51:50.268Z,101254.69
2023-05-18T05:54:52.153Z,101256.19
2023-05-18T05:57:53.708Z,101258.53
2023-05-18T06:00:56.084Z,101260.94
2023-05-18T06:03:57.621Z,101259.13
2023-05-18T06:06:59.177Z,101260.91
2023-05-18T06:10:00.706Z,101257.81
2023-05-18T06:13:02.454Z,101263.72
2023-05-18T06:16:12.720Z,101264.66
2023-05-18T06:19:14.974Z,101265.56
2023-05-18T06:22:16.784Z,101272.06
2023-05-18T06:25:33.320Z,101277.34
2023-05-18T06:29:05.474Z,101273.91
2023-05-18T06:32:17.729Z,101277.34
2023-05-18T06:35:27.273Z,101270.16
2023-05-18T06:38:28.799Z,101275.81
2023-05-18T06:41:30.238Z,101274.84
2023-05-18T06:44:35.093Z,101276.44
2023-05-18T06:47:46.093Z,101278.91
2023-05-18T06:50:47.586Z,101280.75
2023-05-18T06:53:50.191Z,101270.69
2023-05-18T06:56:52.366Z,101273.78
2023-05-18T06:59:53.984Z,101274.25
2023-05-18T07:02:56.675Z,101274.66
2023-05-18T07:05:59.364Z,101269.06
2023-05-18T07:09:02.600Z,101277.84
2023-05-18T07:12:04.332Z,101267.53
2023-05-18T07:15:06.460Z,101273.34
2023-05-18T07:18:07.959Z,101277.22
2023-05-18T07:21:09.715Z,101277.84
2023-05-18T07:24:11.187Z,101276.97
2023-05-18T07:27:12.812Z,101268.13
2023-05-18T07:30:14.541Z,101261.22
2023-05-18T07:33:16.367Z,101266.47
2023-05-18T07:36:17.884Z,101270.38
2023-05-18T07:39:19.894Z,101275.00
2023-05-18T07:42:21.330Z,101272.91
2023-05-18T07:45:23.798Z,101264.00
2023-05-18T07:48:29.007Z,101272.66
2023-05-18T07:51:30.568Z,101267.97
2023-05-18T07:54:32.361Z,101268.66
2023-05-18T07:57:34.378Z,101271.50
2023-05-18T08:00:36.155Z,101267.69
2023-05-18T08:03:37.802Z,101264.19
2023-05-18T08:06:39.422Z,101266.84
2023-05-18T08:09:41.299Z,101268.75
2023-05-18T08:12:42.795Z,101267.16
2023-05-18T08:15:44.233Z,101264.31
2023-05-18T08:18:45.767Z,101262.03
2023-05-18T08:21:47.208Z,101254.00
2023-05-18T08:24:48.631Z,101254.47
2023-05-18T08:27:50.087Z,101249.75
2023-05-18T08:30:51.881Z,101244.28
2023-05-18T08:33:53.316Z,101241.06
2023-05-18T08:36:54.790Z,101239.31
2023-05-18T08:39:56.708Z,101233.16
2023-05-18T08:43:23.058Z,101231.88
2023-05-18T08:46:36.097Z,101239.63
2023-05-18T08:49:38.130Z,101231.38
2023-05-18T08:52:48.219Z,101241.59
2023-05-18T08:55:53.281Z,101229.38
2023-05-18T08:58:56.612Z,101234.47
2023-05-18T09:01:58.381Z,101223.25
2023-05-18T09:05:00.709Z,101221.94
2023-05-18T09:08:03.414Z,101218.94
2023-05-18T09:11:05.248Z,101218.34
2023-05-18T09:14:06.723Z,101219.22
2023-05-18T09:17:08.249Z,101221.66
2023-05-18T09:20:10.233Z,101214.59
2023-05-18T09:23:12.757Z,101218.53
2023-05-18T09:26:15.356Z,101212.69
2023-05-18T09:29:19.033Z,101216.19
2023-05-18T09:32:21.152Z,101213.97
2023-05-18T09:35:24.665Z,101217.56
2023-05-18T09:38:28.005Z,101216.53
2023-05-18T09:41:30.522Z,101211.38
2023-05-18T09:44:34.088Z,101218.97
2023-05-18T09:47:35.628Z,101207.19
2023-05-18T09:50:37.812Z,101201.34
2023-05-18T09:53:40.050Z,101201.81
2023-05-18T09:56:41.567Z,101206.34
2023-05-18T09:59:42.989Z,101203.53
2023-05-18T10:02:48.963Z,101209.03
2023-05-18T10:05:51.507Z,101210.13
2023-05-18T10:08:52.922Z,101191.44
2023-05-18T10:11:54.405Z,101198.19
2023-05-18T10:14:55.938Z,101188.75
2023-05-18T10:17:59.821Z,101182.34
2023-05-18T10:21:03.217Z,101197.69
2023-05-18T10:24:06.401Z,101195.31
2023-05-18T10:27:09.272Z,101201.78
2023-05-18T10:30:11.717Z,101195.81
2023-05-18T10:33:27.970Z,101194.00
2023-05-18T10:36:32.605Z,101190.28
2023-05-18T10:39:37.183Z,101186.91
2023-05-18T10:42:41.202Z,101183.72
2023-05-18T10:45:46.238Z,101177.56
2023-05-18T10:48:49.426Z,101174.56
2023-05-18T10:51:55.071Z,101176.44
2023-05-18T10:55:01.009Z,101171.09
2023-05-18T10:58:10.623Z,101171.03
2023-05-18T11:01:13.497Z,101167.06
2023-05-18T11:04:15.319Z,101166.00
2023-05-18T11:07:17.283Z,101155.41
2023-05-18T11:10:18.819Z,101163.16
2023-05-18T11:13:28.613Z,101152.03
2023-05-18T11:16:37.645Z,101151.84
2023-05-18T11:19:39.173Z,101147.03
2023-05-18T11:23:01.801Z,101148.25
2023-05-18T11:26:03.934Z,101148.03
2023-05-18T11:29:19.871Z,101149.34
2023-05-18T11:32:30.213Z,101136.41
2023-05-18T11:35:34.643Z,101136.97
2023-05-18T11:39:02.294Z,101144.94
2023-05-18T11:42:08.119Z,101141.75
2023-05-18T11:45:11.645Z,101140.00
2023-05-18T11:48:13.305Z,101131.50
2023-05-18T11:51:15.067Z,101128.22
2023-05-18T11:54:17.426Z,101131.38
2023-05-18T11:57:21.046Z,101133.06
2023-05-18T12:00:24.590Z,101118.25
2023-05-18T12:03:26.510Z,101133.81
2023-05-18T12:06:30.872Z,101122.56
2023-05-18T12:09:32.913Z,101123.94
2023-05-18T12:12:34.941Z,101112.06
2023-05-18T12:15:37.292Z,101125.66
2023-05-18T12:18:39.194Z,101117.94
2023-05-18T12:21:40.713Z,101109.53
2023-05-18T12:24:43.565Z,101112.66
2023-05-18T12:27:47.907Z,101108.28
2023-05-18T12:30:49.429Z,101111.72
2023-05-18T12:33:51.652Z,101103.38
2023-05-18T12:36:53.811Z,101097.94
2023-05-18T12:39:55.314Z,101099.06
2023-05-18T12:43:03.050Z,101103.06
2023-05-18T12:46:05.302Z,101094.69
2023-05-18T12:49:07.974Z,101086.81
2023-05-18T12:52:14.701Z,101089.72
2023-05-18T12:55:21.691Z,101080.38
2023-05-18T12:58:23.447Z,101086.44
2023-05-18T13:01:25.280Z,101081.38
2023-05-18T13:04:35.141Z,101072.00
2023-05-18T13:07:41.754Z,101068.78
2023-05-18T13:10:44.422Z,101069.47
2023-05-18T13:14:06.319Z,101072.78
2023-05-18T13:17:07.763Z,101068.44
2023-05-18T13:20:13.926Z,101078.66
2023-05-18T13:23:17.174Z,101064.28
2023-05-18T13:26:21.753Z,101064.84
2023-05-18T13:29:23.190Z,101062.81
2023-05-18T13:32:24.608Z,101053.13
2023-05-18T13:35:26.054Z,101061.06
2023-05-18T13:38:27.525Z,101048.81
2023-05-18T13:41:29.061Z,101039.81
2023-05-18T13:44:30.483Z,101043.66
2023-05-18T13:47:31.962Z,101049.00
2023-05-18T13:50:34.183Z,101051.47
2023-05-18T13:53:38.014Z,101048.78
2023-05-18T13:56:40.331Z,101057.19
2023-05-18T13:59:41.780Z,101037.44
2023-05-18T14:02:44.392Z,101035.59
2023-05-18T14:05:46.087Z,101024.03
2023-05-18T14:08:47.545Z,101027.69
2023-05-18T14:11:49.781Z,101020.06
2023-05-18T14:14:51.971Z,101015.56
2023-05-18T14:17:53.537Z,101015.13
2023-05-18T14:20:57.575Z,101005.28
2023-05-18T14:24:03.543Z,101006.78
2023-05-18T14:27:05.196Z,101006.44
2023-05-18T14:30:07.235Z,101007.44
2023-05-18T14:33:08.783Z,100998.19
2023-05-18T14:36:10.809Z,100999.53
2023-05-18T14:39:13.454Z,101005.28
2023-05-18T14:42:15.182Z,100995.44
2023-05-18T14:45:17.422Z,100994.25
2023-05-18T14:48:18.842Z,100989.28
2023-05-18T14:51:20.409Z,100991.16
2023-05-18T14:54:22.472Z,100988.03
2023-05-18T14:57:26.527Z,100993.84
2023-05-18T15:00:29.287Z,100979.28
2023-05-18T15:03:31.907Z,100988.66
2023-05-18T15:06:33.629Z,100984.53
2023-05-18T15:09:35.106Z,100984.38
2023-05-18T15:12:37.251Z,100988.69
2023-05-18T15:15:39.704Z,100984.13
2023-05-18T15:18:41.477Z,100986.50
2023-05-18T15:21:44.702Z,100985.63
2023-05-18T15:24:46.388Z,100977.75
2023-05-18T15:27:52.826Z,100977.56
2023-05-18T15:30:54.614Z,100972.03
2023-05-18T15:33:56.142Z,100973.72
2023-05-18T15:36:57.821Z,100971.44
2023-05-18T15:39:59.629Z,100966.13
2023-05-18T15:43:01.151Z,100973.06
2023-05-18T15:46:02.729Z,100969.34
2023-05-18T15:49:05.155Z,100967.69
2023-05-18T15:52:07.128Z,100964.34
2023-05-18T15:55:09.044Z,100959.44
2023-05-18T15:58:12.951Z,100974.88
2023-05-18T16:01:14.536Z,100978.16
2023-05-18T16:04:16.166Z,100967.31
2023-05-18T16:07:17.751Z,100972.44
2023-05-18T16:10:19.189Z,100969.97
2023-05-18T16:13:23.572Z,100964.56
2023-05-18T16:16:26.531Z,100969.78
2023-05-18T16:19:28.754Z,100963.81
2023-05-18T16:22:30.279Z,100972.94
2023-05-18T16:25:32.559Z,100973.84
2023-05-18T16:28:34.597Z,100977.66
2023-05-18T16:31:36.998Z,100981.34
2023-05-18T16:34:38.562Z,100974.56
2023-05-18T16:37:40.013Z,100976.38
2023-05-18T16:40:41.488Z,100966.91
2023-05-18T16:43:45.996Z,100977.34
2023-05-18T16:46:47.527Z,100975.41
2023-05-18T16:49:49.250Z,100983.06
2023-05-18T16:52:50.665Z,100979.28
2023-05-18T16:55:52.307Z,100979.53
2023-05-18T16:58:54.186Z,100985.81
2023-05-18T17:01:55.619Z,100990.66
2023-05-18T17:04:58.871Z,100990.38
2023-05-18T17:08:01.423Z,100995.91
2023-05-18T17:11:02.888Z,100990.53
2023-05-18T17:14:05.087Z,100993.09
2023-05-18T17:17:07.785Z,100994.75
2023-05-18T17:20:11.043Z,100996.31
2023-05-18T17:23:17.290Z,100994.41
2023-05-18T17:26:18.901Z,100997.41
2023-05-18T17:29:21.909Z,100988.91
2023-05-18T17:32:23.656Z,100994.09
2023-05-18T17:35:26.195Z,100999.53
2023-05-18T17:38:27.849Z,100994.84
2023-05-18T17:41:32.210Z,100996.88
2023-05-18T17:44:34.944Z,100989.31
2023-05-18T17:47:38.065Z,100992.91
2023-05-18T17:50:39.741Z,100987.53
2023-05-18T17:53:42.657Z,100997.28
2023-05-18T17:56:44.274Z,100984.31
2023-05-18T17:59:46.882Z,100990.78
2023-05-18T18:02:48.358Z,100989.06
2023-05-18T18:05:49.855Z,100989.16
2023-05-18T18:08:59.747Z,100992.19
2023-05-18T18:12:01.281Z,100989.09
2023-05-18T18:15:02.872Z,100994.50
2023-05-18T18:18:04.464Z,100993.84
2023-05-18T18:21:06.513Z,100992.91
2023-05-18T18:24:08.014Z,100994.41
2023-05-18T18:27:09.553Z,101001.75
2023-05-18T18:30:11.586Z,100997.88
2023-05-18T18:33:14.459Z,100999.22
2023-05-18T18:36:16.576Z,100999.63
2023-05-18T18:39:18.011Z,101003.34
2023-05-18T18:42:21.545Z,101004.69
2023-05-18T18:45:23.217Z,101007.78
2023-05-18T18:48:25.378Z,101008.13
2023-05-18T18:51:26.836Z,101005.66
2023-05-18T18:54:29.257Z,101009.19
2023-05-18T18:57:30.891Z,101019.41
2023-05-18T19:00:32.451Z,101015.88
2023-05-18T19:03:34.293Z,101012.28
2023-05-18T19:06:36.632Z,101014.25
2023-05-18T19:09:38.061Z,101017.66
2023-05-18T19:12:39.516Z,101022.72
2023-05-18T19:15:41.245Z,101023.97
2023-05-18T19:18:44.212Z,101022.34
2023-05-18T19:21:46.805Z,101028.72
2023-05-18T19:24:48.221Z,101033.81
2023-05-18T19:27:50.703Z,101037.88
2023-05-18T19:30:52.211Z,101032.72
2023-05-18T19:33:54.406Z,101040.06
2023-05-18T19:36:56.117Z,101036.16
2023-05-18T19:39:57.777Z,101045.38
2023-05-18T19:42:59.736Z,101050.50
2023-05-18T19:46:01.298Z,101050.22
2023-05-18T19:49:03.512Z,101050.69
2023-05-18T19:52:08.124Z,101057.72
2023-05-18T19:55:09.813Z,101051.38
2023-05-18T19:58:11.268Z,101060.88
2023-05-18T20:01:12.885Z,101064.47
2023-05-18T20:04:14.480Z,101062.03
2023-05-18T20:07:17.591Z,101060.03
2023-05-18T20:10:19.227Z,101059.16
2023-05-18T20:13:20.789Z,101066.56
2023-05-18T20:16:22.526Z,101070.56
2023-05-18T20:19:24.177Z,101063.56
2023-05-18T20:22:27.124Z,101066.34
2023-05-18T20:25:34.790Z,101073.94
2023-05-18T20:28:37.111Z,101077.72
2023-05-18T20:31:38.820Z,101082.50
2023-05-18T20:34:41.302Z,101072.88
2023-05-18T20:37:44.231Z,101081.03
2023-05-18T20:40:48.921Z,101083.69
2023-05-18T20:43:51.068Z,101089.94
2023-05-18T20:46:53.145Z,101082.94
2023-05-18T20:49:54.826Z,101089.50
2023-05-18T20:52:56.278Z,101087.03
2023-05-18T20:56:01.059Z,101074.31
2023-05-18T20:59:06.131Z,101086.31
2023-05-18T21:02:08.117Z,101088.19
2023-05-18T21:05:09.750Z,101094.22
2023-05-18T21:08:11.407Z,101093.00
2023-05-18T21:11:12.881Z,101081.34
2023-05-18T21:14:14.341Z,101083.41
2023-05-18T21:17:15.855Z,101080.81
2023-05-18T21:20:17.907Z,101081.53
2023-05-18T21:23:20.015Z,101076.78
2023-05-18T21:26:21.787Z,101072.53
2023-05-18T21:29:23.255Z,101071.41
2023-05-18T21:32:24.846Z,101077.47
2023-05-18T21:35:27.250Z,101069.44
2023-05-18T21:38:28.816Z,101074.84
2023-05-18T21:41:30.717Z,101074.84
2023-05-18T21:44:32.486Z,101080.16
2023-05-18T21:47:33.969Z,101075.00
2023-05-18T21:50:35.805Z,101077.47
2023-05-18T21:53:38.017Z,101066.78
2023-05-18T21:56:39.611Z,101077.41
2023-05-18T21:59:41.088Z,101070.41
2023-05-18T22:02:42.583Z,101063.38
2023-05-18T22:05:44.660Z,101067.75
2023-05-18T22:08:47.190Z,101066.22
2023-05-18T22:11:48.690Z,101073.47
2023-05-18T22:14:50.127Z,101073.22
2023-05-18T22:17:51.787Z,101072.22
2023-05-18T22:20:54.861Z,101074.13
2023-05-18T22:23:56.361Z,101075.78
2023-05-18T22:26:57.829Z,101073.47
2023-05-18T22:29:59.439Z,101071.72
2023-05-18T22:33:00.935Z,101067.53
2023-05-18T22:36:03.059Z,101068.66
2023-05-18T22:39:04.516Z,101073.28
2023-05-18T22:42:06.172Z,101063.78
2023-05-18T22:45:08.994Z,101068.28
2023-05-18T22:48:10.485Z,101059.44
2023-05-18T22:51:12.039Z,101057.84
2023-05-18T22:54:13.495Z,101064.81
2023-05-18T22:57:14.919Z,101067.66
2023-05-18T23:00:17.737Z,101065.25
2023-05-18T23:03:19.156Z,101060.78
2023-05-18T23:06:22.252Z,101062.03
2023-05-18T23:09:26.832Z,101062.03
2023-05-18T23:12:30.330Z,101063.88
2023-05-18T23:15:31.822Z,101065.84
2023-05-18T23:18:33.262Z,101051.53
2023-05-18T23:21:34.920Z,101052.59
2023-05-18T23:24:36.349Z,101051.91
2023-05-18T23:27:37.828Z,101055.72
2023-05-18T23:30:39.276Z,101050.59
2023-05-18T23:33:41.046Z,101054.19
2023-05-18T23:36:44.711Z,101055.81
2023-05-18T23:39:50.090Z,101059.47
2023-05-18T23:42:51.688Z,101059.72
2023-05-18T23:45:53.400Z,101061.44
2023-05-18T23:48:55.246Z,101058.97
2023-05-18T23:52:01.243Z,101058.78
2023-05-18T23:55:04.051Z,101059.84
2023-05-18T23:58:06.195Z,101055.41
